Time;durP1;ratioP1;P1;durP2;ratioP2;P2;SDS_P1;SDS_P2;PMS_P1;PMS_P2;Temp;Humidity;BMP_temperature;BMP_pressure;BME280_temperature;BME280_humidity;BME280_pressure;Samples;Min_cycle;Max_cycle;Signal;HPM_P1;HPM_P2
2021/12/09 00:00:10;;;;;;;;;1.75;1.75;;;;;4.82;69.38;99838.91;5039013;28;45283;-75
2021/12/09 00:02:35;;;;;;;;;1.00;1.00;;;;;4.95;69.56;99864.34;5040655;28;45409;-80
2021/12/09 00:05:01;;;;;;;;;2.50;1.50;;;;;4.90;69.25;99859.91;5040544;28;45553;-78
2021/12/09 00:07:26;;;;;;;;;1.00;1.00;;;;;4.79;69.97;99844.94;5040774;28;45461;-78
2021/12/09 00:09:52;;;;;;;;;1.00;1.00;;;;;4.81;69.77;99845.84;5044110;28;45260;-76
2021/12/09 00:12:18;;;;;;;;;5.00;2.25;;;;;4.93;69.55;99858.22;5041904;28;45272;-79
2021/12/09 00:14:43;;;;;;;;;1.00;1.00;;;;;4.62;69.57;99815.09;5039384;28;47102;-78
2021/12/09 00:17:10;;;;;;;;;1.00;1.00;;;;;4.81;69.89;99848.47;5038659;28;45447;-81
2021/12/09 00:19:38;;;;;;;;;1.00;1.00;;;;;4.85;69.73;99857.22;5037726;28;45547;-79
2021/12/09 00:22:06;;;;;;;;;5.25;3.25;;;;;4.65;69.65;99829.91;5039552;28;45445;-79
2021/12/09 00:24:32;;;;;;;;;5.00;2.25;;;;;4.34;69.77;99776.38;5038556;28;45485;-85
2021/12/09 00:26:58;;;;;;;;;2.00;1.00;;;;;4.89;69.75;99865.97;5038182;28;45326;-82
2021/12/09 00:29:23;;;;;;;;;1.50;1.00;;;;;4.83;69.89;99853.69;5038829;28;45476;-81
2021/12/09 00:31:49;;;;;;;;;1.00;1.00;;;;;4.88;70.21;99867.72;5039416;28;45397;-80
2021/12/09 00:34:18;;;;;;;;;1.00;1.00;;;;;4.78;69.93;99853.63;5039096;28;46239;-81
2021/12/09 00:36:56;;;;;;;;;0.00;0.00;;;;;4.88;69.85;99869.44;5039752;28;45262;-81
2021/12/09 00:39:22;;;;;;;;;2.00;2.00;;;;;4.89;69.90;99861.63;5037785;28;45504;-79
2021/12/09 00:41:48;;;;;;;;;1.50;1.25;;;;;4.81;70.02;99853.69;5038806;28;45388;-77
2021/12/09 00:44:13;;;;;;;;;5.00;2.00;;;;;4.81;70.07;99858.03;5038397;28;45330;-79
2021/12/09 00:46:39;;;;;;;;;1.00;1.00;;;;;4.88;69.99;99872.06;5036508;28;45441;-78
2021/12/09 00:49:06;;;;;;;;;1.00;1.00;;;;;4.90;69.88;99875.56;5038250;28;45257;-77
2021/12/09 00:51:31;;;;;;;;;2.00;2.00;;;;;4.72;70.24;99844.81;5037171;28;45597;-79
2021/12/09 00:53:57;;;;;;;;;0.50;0.50;;;;;4.90;70.25;99875.56;5038836;28;46561;-76
2021/12/09 00:56:23;;;;;;;;;6.50;1.00;;;;;4.91;70.20;99885.13;5038054;28;45427;-77
2021/12/09 00:58:49;;;;;;;;;1.75;1.00;;;;;4.82;70.20;99865.00;5038501;28;45398;-82
2021/12/09 01:01:15;;;;;;;;;1.00;1.00;;;;;4.88;70.24;99877.28;5038326;28;45491;-81
2021/12/09 01:03:42;;;;;;;;;2.00;1.50;;;;;4.96;70.07;99883.50;5036741;28;48115;-74
2021/12/09 01:06:09;;;;;;;;;3.00;1.75;;;;;4.98;70.08;99884.41;5038370;28;45310;-79
2021/12/09 01:08:36;;;;;;;;;0.00;0.00;;;;;4.80;70.13;99851.94;5037918;28;45410;-77
2021/12/09 01:11:05;;;;;;;;;1.25;1.00;;;;;4.80;69.73;99838.00;5038048;28;45400;-78
2021/12/09 01:13:31;;;;;;;;;0.00;0.00;;;;;4.83;69.93;99840.66;5037736;28;46009;-76
2021/12/09 01:15:57;;;;;;;;;0.00;0.00;;;;;5.02;70.04;99879.22;5038006;28;45466;-79
2021/12/09 01:18:23;;;;;;;;;1.00;1.00;;;;;5.02;69.54;99879.22;5038535;28;45264;-79
2021/12/09 01:20:49;;;;;;;;;0.75;0.75;;;;;5.00;70.00;99874.84;5037796;28;45467;-82
2021/12/09 01:23:15;;;;;;;;;1.00;1.00;;;;;4.93;69.82;99875.59;5037335;28;47056;-76
2021/12/09 01:25:41;;;;;;;;;1.25;1.25;;;;;4.82;69.83;99846.72;5037755;28;45187;-79
2021/12/09 01:28:14;;;;;;;;;0.50;0.50;;;;;5.06;70.01;99890.63;5037849;28;45272;-78
2021/12/09 01:30:40;;;;;;;;;0.00;0.00;;;;;4.82;69.47;99854.56;5037524;28;45227;-78
2021/12/09 01:33:06;;;;;;;;;5.00;1.00;;;;;5.06;69.49;99904.53;5037344;28;45920;-80
2021/12/09 01:35:34;;;;;;;;;3.00;0.25;;;;;5.06;69.67;99894.09;5037241;28;45304;-77
2021/12/09 01:38:08;;;;;;;;;5.00;2.00;;;;;4.90;69.84;99873.81;5037480;28;45393;-75
2021/12/09 01:40:33;;;;;;;;;2.00;2.00;;;;;4.88;69.53;99859.88;5037967;28;45560;-78
2021/12/09 01:42:59;;;;;;;;;1.00;1.00;;;;;5.01;69.45;99897.47;5037112;28;46101;-77
2021/12/09 01:45:25;;;;;;;;;0.00;0.00;;;;;5.00;69.72;99885.28;5036417;28;45495;-77
2021/12/09 01:47:51;;;;;;;;;0.75;0.75;;;;;4.87;69.39;99868.56;5037712;28;45443;-75
2021/12/09 01:50:17;;;;;;;;;1.00;1.00;;;;;5.03;69.67;99901.03;5037905;28;45378;-77
2021/12/09 01:52:43;;;;;;;;;0.00;0.00;;;;;5.09;69.69;99906.31;5037209;28;47327;-76
2021/12/09 01:55:10;;;;;;;;;0.25;0.25;;;;;5.12;69.51;99922.06;5037306;28;45252;-77
2021/12/09 01:57:36;;;;;;;;;0.00;0.00;;;;;5.15;69.18;99920.34;5036696;28;45271;-76
2021/12/09 02:00:11;;;;;;;;;0.50;0.00;;;;;5.09;69.14;99906.31;5037656;28;45355;-77
2021/12/09 02:02:38;;;;;;;;;1.00;1.00;;;;;4.86;68.52;99864.22;5036327;28;46653;-77
2021/12/09 02:05:04;;;;;;;;;2.00;0.25;;;;;5.10;68.28;99898.50;5035419;28;45489;-75
2021/12/09 02:07:29;;;;;;;;;1.50;1.00;;;;;5.25;68.45;99929.22;5036606;28;45438;-73
2021/12/09 02:09:55;;;;;;;;;0.50;0.00;;;;;5.07;68.60;99890.63;5037745;28;45297;-74
2021/12/09 02:12:20;;;;;;;;;1.50;0.75;;;;;5.27;68.37;99916.19;5036140;28;46340;-77
2021/12/09 02:14:47;;;;;;;;;0.00;0.00;;;;;5.25;68.47;99929.22;5037360;28;45318;-75
2021/12/09 02:17:13;;;;;;;;;1.00;1.00;;;;;5.26;68.42;99922.25;5035724;28;45434;-75
2021/12/09 02:19:43;;;;;;;;;1.75;1.00;;;;;5.25;68.49;99920.50;5037232;28;47003;-77
2021/12/09 02:22:14;;;;;;;;;0.50;0.50;;;;;5.24;68.99;99924.84;5037223;28;46418;-76
2021/12/09 02:24:41;;;;;;;;;2.00;1.00;;;;;5.06;68.55;99888.88;5037170;28;45299;-75
2021/12/09 02:27:06;;;;;;;;;0.00;0.00;;;;;5.24;68.68;99919.63;5036625;28;45240;-75
2021/12/09 02:29:32;;;;;;;;;0.75;0.75;;;;;5.25;68.60;99912.66;5036756;28;45888;-78
2021/12/09 02:32:01;;;;;;;;;0.00;0.00;;;;;5.14;68.53;99905.56;5036608;28;45949;-76
2021/12/09 02:34:26;;;;;;;;;0.00;0.00;;;;;5.18;68.64;99905.59;5035468;28;45312;-76
2021/12/09 02:36:52;;;;;;;;;0.00;0.00;;;;;5.24;68.87;99919.63;5036122;28;45416;-76
2021/12/09 02:39:18;;;;;;;;;2.50;0.75;;;;;4.95;69.01;99869.56;5037573;28;45399;-78
2021/12/09 02:41:47;;;;;;;;;1.00;1.00;;;;;5.26;68.51;99924.88;5036828;28;45790;-76
2021/12/09 02:44:18;;;;;;;;;0.00;0.00;;;;;5.21;68.60;99918.69;5036669;28;45306;-78
2021/12/09 02:46:43;;;;;;;;;1.00;1.00;;;;;5.25;69.09;99928.34;5036510;28;45299;-82
2021/12/09 02:49:13;;;;;;;;;1.00;1.00;;;;;5.23;69.07;99923.09;5036769;28;45406;-82
2021/12/09 02:51:39;;;;;;;;;1.00;1.00;;;;;5.20;69.50;99914.31;5037079;28;45590;-81
2021/12/09 02:54:07;;;;;;;;;2.00;0.50;;;;;5.21;69.54;99921.28;5036867;28;45427;-82
2021/12/09 02:56:33;;;;;;;;;0.75;0.75;;;;;5.27;69.13;99918.78;5048629;28;45323;-81
2021/12/09 02:58:59;;;;;;;;;2.75;1.00;;;;;5.09;68.93;99885.44;5030972;28;45395;-81
2021/12/09 03:01:34;;;;;;;;;0.00;0.00;;;;;5.05;68.56;99883.66;5036563;28;45311;-79
2021/12/09 03:04:03;;;;;;;;;1.00;1.00;;;;;5.24;68.86;99937.03;5036278;28;45319;-82
2021/12/09 03:06:39;;;;;;;;;2.00;2.00;;;;;5.24;68.91;99935.28;5036386;28;45239;-76
2021/12/09 03:09:08;;;;;;;;;1.00;1.00;;;;;5.11;68.95;99908.09;5036464;28;45496;-76
2021/12/09 03:11:35;;;;;;;;;1.00;1.00;;;;;4.91;68.91;99880.78;5040104;28;47244;-77
2021/12/09 03:14:01;;;;;;;;;2.00;1.50;;;;;5.22;69.03;99947.47;5039871;28;45264;-76
2021/12/09 03:16:27;;;;;;;;;1.00;1.00;;;;;5.21;69.36;99942.19;5039467;28;45226;-77
2021/12/09 03:18:56;;;;;;;;;3.25;2.00;;;;;5.19;69.56;99938.66;5039928;28;45240;-77
2021/12/09 03:21:25;;;;;;;;;0.50;0.50;;;;;4.91;69.63;99892.97;5039641;28;46828;-80
2021/12/09 03:23:52;;;;;;;;;0.75;0.75;;;;;5.21;69.05;99935.25;5039781;28;45212;-77
2021/12/09 03:26:25;;;;;;;;;1.00;1.00;;;;;5.10;69.24;99918.50;5039342;28;45290;-78
2021/12/09 03:28:51;;;;;;;;;0.75;0.75;;;;;5.23;69.48;99937.88;5038545;28;45364;-77
2021/12/09 03:31:17;;;;;;;;;0.00;0.00;;;;;5.08;69.44;99928.94;5038926;28;47126;-77
2021/12/09 03:33:42;;;;;;;;;2.00;0.00;;;;;5.17;69.46;99946.47;5039667;28;45335;-80
2021/12/09 03:36:07;;;;;;;;;1.00;1.00;;;;;5.12;69.69;99935.09;5039622;28;45236;-79
2021/12/09 03:38:34;;;;;;;;;5.25;1.00;;;;;5.19;69.60;99942.16;5039287;28;45465;-79
2021/12/09 03:40:59;;;;;;;;;1.00;1.00;;;;;5.20;69.21;99945.66;5038935;28;46349;-81
2021/12/09 03:43:25;;;;;;;;;3.25;1.00;;;;;5.18;69.48;99932.56;5039388;28;45516;-79
2021/12/09 03:45:55;;;;;;;;;2.75;2.50;;;;;4.97;68.88;99900.91;5037663;28;45533;-83
2021/12/09 03:48:29;;;;;;;;;2.00;2.00;;;;;5.30;69.37;99960.59;5039579;28;45520;-74
2021/12/09 03:50:55;;;;;;;;;1.75;1.75;;;;;5.26;69.31;99950.97;5039069;28;45404;-74
2021/12/09 03:53:22;;;;;;;;;0.00;0.00;;;;;5.32;69.14;99949.34;5038612;28;45369;-75
2021/12/09 03:55:48;;;;;;;;;2.00;0.00;;;;;5.18;69.37;99929.09;5039257;28;45311;-77
2021/12/09 03:58:14;;;;;;;;;0.00;0.00;;;;;5.33;68.98;99950.22;5039732;28;45311;-76
2021/12/09 04:00:39;;;;;;;;;1.00;1.00;;;;;5.38;69.26;99959.00;5038696;28;45387;-78
2021/12/09 04:03:06;;;;;;;;;0.75;0.75;;;;;5.32;68.92;99943.25;5038950;28;45445;-76
2021/12/09 04:05:32;;;;;;;;;2.50;0.00;;;;;5.34;68.60;99947.63;5038616;28;45396;-76
2021/12/09 04:07:58;;;;;;;;;1.00;0.75;;;;;5.33;68.71;99952.84;5039340;28;45476;-75
2021/12/09 04:10:23;;;;;;;;;1.25;0.25;;;;;5.33;68.55;99958.06;5038901;28;46421;-79
2021/12/09 04:12:49;;;;;;;;;1.00;1.00;;;;;5.18;68.96;99932.56;5038595;28;45497;-75
2021/12/09 04:15:14;;;;;;;;;1.00;0.50;;;;;5.36;68.39;99965.94;5039204;28;45280;-79
2021/12/09 04:17:40;;;;;;;;;1.75;0.75;;;;;5.38;68.38;99975.53;5038742;28;45236;-81
2021/12/09 04:20:08;;;;;;;;;1.00;0.00;;;;;5.36;68.64;99961.59;5038599;28;47148;-80
2021/12/09 04:22:34;;;;;;;;;1.25;1.00;;;;;5.34;68.51;99968.53;5037754;28;45273;-80
2021/12/09 04:25:00;;;;;;;;;3.00;1.25;;;;;5.20;69.12;99946.53;5039002;28;45512;-76
2021/12/09 04:27:26;;;;;;;;;1.75;1.75;;;;;5.12;69.08;99940.31;5038899;28;45392;-76
2021/12/09 04:29:53;;;;;;;;;0.00;0.00;;;;;5.10;69.33;99940.28;5038875;28;46802;-78
2021/12/09 04:32:19;;;;;;;;;1.00;1.00;;;;;5.30;69.45;99968.44;5038765;28;45497;-82
2021/12/09 04:34:46;;;;;;;;;1.00;1.00;;;;;5.31;69.61;99971.09;5038727;28;45287;-81
2021/12/09 04:37:13;;;;;;;;;2.00;0.00;;;;;5.35;69.34;99977.25;5037943;28;45249;-79
2021/12/09 04:39:39;;;;;;;;;0.75;0.00;;;;;5.38;68.86;99977.28;5038311;28;47164;-82
2021/12/09 04:42:05;;;;;;;;;2.50;1.00;;;;;5.19;68.87;99954.34;5038827;28;45438;-81
2021/12/09 04:44:31;;;;;;;;;1.00;1.00;;;;;5.40;68.88;99973.88;5037861;28;45546;-82
2021/12/09 04:46:57;;;;;;;;;2.50;1.50;;;;;5.29;69.02;99951.03;5038644;28;45302;-84
2021/12/09 04:49:22;;;;;;;;;1.50;1.50;;;;;5.20;68.83;99945.66;5038519;28;46345;-80
2021/12/09 04:51:48;;;;;;;;;2.00;1.00;;;;;5.09;68.52;99919.38;5038748;28;45476;-77
2021/12/09 04:54:14;;;;;;;;;1.25;1.00;;;;;5.35;68.62;99957.22;5038311;28;45340;-82
2021/12/09 04:56:40;;;;;;;;;1.50;1.50;;;;;5.38;68.65;99961.59;5038362;28;45223;-85
2021/12/09 04:59:06;;;;;;;;;1.00;1.00;;;;;5.43;68.10;99968.69;5038551;28;46973;-82
2021/12/09 05:01:32;;;;;;;;;1.00;1.00;;;;;5.31;68.72;99962.41;5038232;28;45173;-78
2021/12/09 05:03:58;;;;;;;;;2.00;1.00;;;;;5.05;68.94;99908.00;5038153;28;45555;-79
2021/12/09 05:06:23;;;;;;;;;3.00;2.00;;;;;5.27;68.73;99955.34;5037849;28;45501;-78
2021/12/09 05:08:49;;;;;;;;;3.00;2.00;;;;;5.41;68.71;99983.44;5038779;28;46986;-79
2021/12/09 05:11:47;;;;;;;;;1.00;1.00;;;;;5.27;68.67;99953.63;5055100;28;45413;-83
2021/12/09 05:14:15;;;;;;;;;2.50;2.50;;;;;5.41;68.84;99979.97;5019195;28;45419;-81
2021/12/09 05:16:40;;;;;;;;;1.00;1.00;;;;;5.32;69.01;99964.16;5024180;28;45272;-82
2021/12/09 05:19:06;;;;;;;;;0.50;0.50;;;;;5.40;68.75;99981.69;5038050;28;46477;-80
2021/12/09 05:21:38;;;;;;;;;2.25;1.00;;;;;5.42;68.80;99979.09;5038617;28;45169;-79
2021/12/09 05:24:10;;;;;;;;;0.75;0.75;;;;;5.33;68.55;99963.28;5038298;28;45313;-78
2021/12/09 05:26:43;;;;;;;;;1.50;1.50;;;;;5.28;69.11;99955.38;5037997;28;45367;-79
2021/12/09 05:29:09;;;;;;;;;0.75;0.75;;;;;5.26;69.23;99949.25;5038387;28;47253;-74
2021/12/09 05:34:18;;;;;;;;;5.75;3.25;;;;;5.38;68.85;99979.91;5040192;28;45398;-77
2021/12/09 05:36:44;;;;;;;;;1.00;0.75;;;;;5.43;69.29;99980.88;5038270;28;45525;-77
2021/12/09 05:39:11;;;;;;;;;1.00;0.00;;;;;5.42;69.30;99979.97;5037327;28;46554;-78
2021/12/09 05:41:37;;;;;;;;;1.00;1.00;;;;;5.41;68.73;99986.06;5037566;28;45307;-84
2021/12/09 05:44:05;;;;;;;;;1.00;1.00;;;;;5.39;68.72;99985.13;5038007;28;45462;-80
2021/12/09 05:46:32;;;;;;;;;1.00;0.75;;;;;5.40;69.34;99984.31;5036765;28;45307;-77
2021/12/09 05:48:57;;;;;;;;;1.00;1.00;;;;;5.24;69.09;99963.13;5037450;28;46428;-78
2021/12/09 05:51:24;;;;;;;;;0.25;0.25;;;;;5.33;68.92;99994.63;5037765;28;45218;-79
2021/12/09 05:53:50;;;;;;;;;1.25;1.25;;;;;5.37;69.45;99994.69;5037698;28;45361;-80
2021/12/09 05:56:15;;;;;;;;;2.50;1.00;;;;;5.24;68.98;99984.03;5037192;28;45413;-80
2021/12/09 05:58:41;;;;;;;;;9.00;2.50;;;;;5.32;69.32;99995.47;5037473;28;46151;-79
2021/12/09 06:01:06;;;;;;;;;3.00;1.00;;;;;5.32;69.19;99996.38;5036956;28;45273;-77
2021/12/09 06:03:33;;;;;;;;;3.00;2.00;;;;;5.37;69.63;100007.75;5037269;28;45715;-78
2021/12/09 06:05:59;;;;;;;;;2.00;2.00;;;;;5.39;69.04;100005.16;5037479;28;45583;-76
2021/12/09 06:08:25;;;;;;;;;2.75;2.00;;;;;5.39;68.82;100005.16;5037237;28;47032;-80
2021/12/09 06:10:51;;;;;;;;;1.75;1.75;;;;;5.27;68.98;99982.34;5036660;28;45276;-79
2021/12/09 06:13:17;;;;;;;;;2.00;2.00;;;;;5.42;69.45;100010.44;5037271;28;45213;-83
2021/12/09 06:15:43;;;;;;;;;2.00;1.75;;;;;5.32;69.06;99998.09;5041267;28;45417;-79
2021/12/09 06:18:08;;;;;;;;;3.00;3.00;;;;;5.39;68.58;100011.25;5057385;28;45260;-78
2021/12/09 06:20:33;;;;;;;;;3.00;1.75;;;;;5.18;69.20;99986.53;5053037;28;45339;-79
2021/12/09 06:22:59;;;;;;;;;3.00;3.00;;;;;5.30;68.92;99998.03;5037653;28;45208;-77
2021/12/09 06:25:24;;;;;;;;;5.50;2.75;;;;;5.34;69.32;99999.00;5036690;28;45473;-76
2021/12/09 06:27:51;;;;;;;;;1.25;1.25;;;;;5.27;68.98;99999.75;5036983;28;45396;-76
2021/12/09 06:30:19;;;;;;;;;1.00;1.00;;;;;5.15;69.19;99972.56;5036121;28;45529;-77
2021/12/09 06:32:45;;;;;;;;;1.75;1.75;;;;;5.39;69.23;100024.31;5036713;28;45386;-78
2021/12/09 06:35:11;;;;;;;;;4.50;4.50;;;;;5.37;69.43;100022.53;5036056;28;45517;-74
2021/12/09 06:37:39;;;;;;;;;1.00;1.00;;;;;5.35;69.36;100021.63;5041956;28;46410;-78
2021/12/09 06:40:10;;;;;;;;;2.00;2.00;;;;;5.27;69.14;100016.28;5044814;28;45438;-78
2021/12/09 06:42:36;;;;;;;;;3.00;2.75;;;;;5.32;69.28;100024.22;5033752;28;45398;-77
2021/12/09 06:45:03;;;;;;;;;5.00;5.00;;;;;5.02;69.19;99975.81;5036954;28;45531;-76
2021/12/09 06:47:28;;;;;;;;;0.00;0.00;;;;;4.74;69.54;99935.31;5045650;28;46396;-79
2021/12/09 06:49:53;;;;;;;;;3.00;3.00;;;;;5.28;69.06;100038.06;5042585;28;45228;-78
2021/12/09 06:52:19;;;;;;;;;5.25;2.50;;;;;5.19;69.61;100023.09;5060557;28;45746;-78
2021/12/09 06:54:45;;;;;;;;;8.75;4.00;;;;;5.17;69.36;100029.16;5047212;28;45409;-79
2021/12/09 06:57:10;;;;;;;;;4.50;4.50;;;;;5.28;69.42;100038.94;5038951;28;46119;-76
2021/12/09 06:59:36;;;;;;;;;5.75;5.75;;;;;5.05;70.20;100014.16;5039425;28;45532;-78
2021/12/09 07:02:01;;;;;;;;;3.25;3.25;;;;;5.19;69.57;100040.50;5039783;28;45527;-79
2021/12/09 07:04:27;;;;;;;;;4.00;4.00;;;;;5.23;69.53;100058.00;5039417;28;46653;-77
2021/12/09 07:06:52;;;;;;;;;3.25;3.25;;;;;5.14;69.67;100043.03;5039850;28;47289;-78
2021/12/09 07:09:19;;;;;;;;;5.25;5.25;;;;;5.15;69.97;100057.84;5040082;28;45346;-81
2021/12/09 07:11:49;;;;;;;;;5.50;5.50;;;;;4.80;69.99;100005.88;5040028;28;45341;-81
2021/12/09 07:14:15;;;;;;;;;9.75;3.00;;;;;5.00;69.48;100026.25;5040004;28;45401;-79
2021/12/09 07:16:40;;;;;;;;;3.50;3.50;;;;;5.15;69.67;100045.69;5038659;28;46295;-80
2021/12/09 07:19:06;;;;;;;;;5.00;5.00;;;;;4.94;69.41;100015.72;5038724;28;45362;-79
2021/12/09 07:21:31;;;;;;;;;6.00;3.00;;;;;4.96;69.55;100019.22;5039109;28;45815;-75
2021/12/09 07:23:57;;;;;;;;;5.50;5.50;;;;;4.86;69.85;100005.13;5039918;28;45386;-75
2021/12/09 07:26:22;;;;;;;;;6.00;6.00;;;;;5.09;70.00;100061.22;5039737;28;45927;-75
2021/12/09 07:28:48;;;;;;;;;3.00;3.00;;;;;5.09;70.02;100053.38;5039570;28;45438;-76
2021/12/09 07:31:15;;;;;;;;;2.75;2.75;;;;;4.74;69.84;99999.66;5039222;28;45406;-77
2021/12/09 07:33:42;;;;;;;;;3.50;3.50;;;;;5.03;70.00;100045.47;5040136;28;45380;-78
2021/12/09 07:36:07;;;;;;;;;4.50;4.50;;;;;4.82;69.89;100012.00;5039551;28;45304;-79
2021/12/09 07:38:33;;;;;;;;;5.75;5.50;;;;;5.02;70.13;100030.63;5038762;28;45251;-80
2021/12/09 07:40:58;;;;;;;;;6.00;5.50;;;;;5.12;70.25;100049.97;5039640;28;45293;-80
2021/12/09 07:43:24;;;;;;;;;0.00;0.00;;;;;4.88;70.31;100013.84;5037423;28;45343;-77
2021/12/09 07:45:49;;;;;;;;;9.25;6.25;;;;;5.01;70.17;100031.47;5038231;28;46214;-78
2021/12/09 07:48:14;;;;;;;;;5.00;5.00;;;;;4.84;70.24;99992.06;5051303;28;45479;-77
2021/12/09 07:50:40;;;;;;;;;7.25;5.00;;;;;5.20;69.35;100050.09;5043694;28;45480;-76
2021/12/09 07:53:06;;;;;;;;;8.00;6.00;;;;;5.03;69.24;100019.34;5059609;28;45334;-76
2021/12/09 07:55:31;;;;;;;;;7.00;5.00;;;;;5.11;69.82;100028.19;5057139;28;46236;-79
2021/12/09 07:57:57;;;;;;;;;6.75;5.50;;;;;5.18;69.50;100041.34;5056078;28;45372;-77
2021/12/09 08:00:27;;;;;;;;;6.50;6.50;;;;;5.29;69.39;100056.34;5037409;28;45360;-79
2021/12/09 08:02:53;;;;;;;;;5.25;5.00;;;;;4.96;69.44;99999.22;5039425;28;45405;-78
2021/12/09 08:05:19;;;;;;;;;5.25;5.25;;;;;5.28;68.96;100051.97;5038695;28;45680;-78
2021/12/09 08:07:45;;;;;;;;;6.75;5.75;;;;;5.02;69.12;100020.19;5038833;28;45417;-79
2021/12/09 08:10:13;;;;;;;;;6.00;6.00;;;;;5.04;69.24;100028.06;5021615;28;45320;-80
2021/12/09 08:12:40;;;;;;;;;7.00;5.00;;;;;5.26;69.44;100065.88;5039332;28;45523;-81
2021/12/09 08:15:08;;;;;;;;;8.75;6.00;;;;;5.29;69.20;100061.56;5039235;28;46309;-82
2021/12/09 08:20:05;;;;;;;;;11.50;6.00;;;;;5.30;68.54;100046.78;5038554;28;45341;-78
2021/12/09 08:22:31;;;;;;;;;6.00;6.00;;;;;5.47;68.63;100078.41;5038913;28;45349;-77
2021/12/09 08:24:58;;;;;;;;;6.50;5.25;;;;;5.33;68.63;100052.06;5038753;28;46483;-77
2021/12/09 08:27:24;;;;;;;;;8.75;8.75;;;;;4.97;68.73;99981.81;5038518;28;45304;-80
2021/12/09 08:29:50;;;;;;;;;6.75;6.25;;;;;5.00;68.25;99980.13;5038484;28;45386;-80
2021/12/09 08:32:16;;;;;;;;;6.75;6.25;;;;;5.30;68.15;100031.13;5038476;28;45402;-79
2021/12/09 08:34:41;;;;;;;;;8.50;7.00;;;;;5.41;68.39;100040.91;5038731;28;45298;-79
2021/12/09 08:37:07;;;;;;;;;7.25;5.00;;;;;5.52;67.57;100054.16;5038932;28;45517;-78
2021/12/09 08:39:32;;;;;;;;;10.50;9.50;;;;;5.50;68.45;100065.44;5038952;28;45338;-78
2021/12/09 08:41:58;;;;;;;;;4.00;4.00;;;;;5.47;68.44;100055.78;5037182;28;45562;-78
2021/12/09 08:44:23;;;;;;;;;6.00;6.00;;;;;5.34;68.06;100023.38;5038217;28;46134;-80
2021/12/09 08:46:49;;;;;;;;;7.25;6.00;;;;;5.61;67.52;100076.94;5038153;28;45367;-81
2021/12/09 08:49:15;;;;;;;;;7.75;4.50;;;;;5.60;67.17;100057.78;5038597;28;45429;-80
2021/12/09 08:51:42;;;;;;;;;7.50;7.50;;;;;5.75;66.95;100077.16;5038760;28;45410;-80
2021/12/09 08:54:07;;;;;;;;;11.25;9.50;;;;;5.83;67.57;100078.16;5038361;28;46113;-80
2021/12/09 08:56:34;;;;;;;;;9.00;9.00;;;;;5.31;66.87;99986.78;5038478;28;45237;-81
2021/12/09 08:59:02;;;;;;;;;9.75;6.00;;;;;5.91;67.20;100090.53;5038238;28;45428;-80
2021/12/09 09:01:28;;;;;;;;;10.50;6.50;;;;;5.94;66.59;100100.16;5038587;28;45359;-79
2021/12/09 09:03:53;;;;;;;;;9.75;8.50;;;;;5.79;67.08;100064.16;5038052;28;45973;-79
2021/12/09 09:06:19;;;;;;;;;10.00;9.00;;;;;5.91;66.75;100092.25;5037794;28;45338;-80
2021/12/09 09:08:44;;;;;;;;;10.50;7.00;;;;;5.33;66.06;99985.06;5037570;28;45290;-80
2021/12/09 09:11:10;;;;;;;;;10.00;8.50;;;;;5.91;66.65;100080.06;5038474;28;45232;-81
2021/12/09 09:13:36;;;;;;;;;7.00;7.00;;;;;6.18;65.84;100108.38;5037825;28;45765;-81
2021/12/09 09:16:01;;;;;;;;;7.75;6.00;;;;;6.26;66.10;100104.13;5038060;28;45252;-81
2021/12/09 09:18:27;;;;;;;;;13.00;9.25;;;;;6.53;64.99;100116.72;5038224;28;45244;-81
2021/12/09 09:20:53;;;;;;;;;9.75;6.50;;;;;8.38;61.02;100134.38;5038502;28;45240;-80
2021/12/09 09:23:20;;;;;;;;;9.00;7.50;;;;;11.06;54.54;100112.72;5038136;28;45358;-81
2021/12/09 09:25:47;;;;;;;;;8.50;8.00;;;;;13.20;49.13;100100.28;5037892;28;45437;-81
2021/12/09 09:28:13;;;;;;;;;7.00;7.00;;;;;14.67;45.60;100108.50;5037866;28;45377;-80
2021/12/09 09:30:45;;;;;;;;;8.00;7.00;;;;;16.08;41.75;100106.25;5037943;28;45403;-80
2021/12/09 09:33:13;;;;;;;;;6.00;5.25;;;;;17.00;39.74;100094.03;5037796;28;45387;-81
2021/12/09 09:35:41;;;;;;;;;9.00;8.75;;;;;17.86;38.10;100105.59;5037928;28;45371;-81
2021/12/09 09:38:07;;;;;;;;;6.00;6.00;;;;;18.39;36.05;100039.78;5037889;28;45276;-79
2021/12/09 09:40:40;;;;;;;;;5.25;5.25;;;;;19.27;35.58;100117.53;5037945;28;45302;-80
2021/12/09 09:43:25;;;;;;;;;6.50;4.50;;;;;19.36;35.57;100090.47;5037647;28;46436;-78
2021/12/09 09:45:51;;;;;;;;;10.00;7.00;;;;;18.85;34.90;100087.97;5036018;28;45335;-81
2021/12/09 09:48:17;;;;;;;;;9.00;6.75;;;;;19.52;34.08;100128.13;5037527;28;45240;-80
2021/12/09 09:50:43;;;;;;;;;7.00;6.00;;;;;19.53;34.09;100121.84;5038075;28;45210;-81
2021/12/09 09:53:10;;;;;;;;;7.50;4.25;;;;;18.02;38.14;100128.16;5037373;28;46422;-80
2021/12/09 09:55:36;;;;;;;;;7.25;4.25;;;;;17.60;36.89;100125.06;5037418;28;45374;-80
2021/12/09 09:58:02;;;;;;;;;6.00;5.00;;;;;18.68;35.39;100101.94;5038351;28;45459;-81
2021/12/09 10:00:27;;;;;;;;;5.25;5.25;;;;;19.41;33.53;100133.03;5037470;28;45390;-80
2021/12/09 10:02:54;;;;;;;;;7.25;5.75;;;;;19.92;32.77;100133.69;5037368;28;46167;-81
2021/12/09 10:05:28;;;;;;;;;6.00;4.33;;;;;19.15;34.29;100118.84;5036969;28;45440;-81
2021/12/09 10:07:55;;;;;;;;;8.00;5.00;;;;;16.72;36.47;100078.84;5037299;28;45349;-79
2021/12/09 10:10:21;;;;;;;;;8.00;6.00;;;;;16.71;37.64;100137.41;5037442;28;45214;-81
2021/12/09 10:13:14;;;;;;;;;7.50;6.25;;;;;18.76;35.21;100134.53;5037162;28;46141;-78
2021/12/09 10:15:51;;;;;;;;;6.00;6.00;;;;;19.49;33.12;100120.25;5035566;28;45346;-80
2021/12/09 10:18:34;;;;;;;;;5.00;5.00;;;;;20.48;32.03;100133.16;5036770;28;45337;-80
2021/12/09 10:21:00;;;;;;;;;2.67;2.67;;;;;20.70;31.55;100081.34;5037251;28;45530;-81
2021/12/09 10:23:29;;;;;;;;;6.00;6.00;;;;;21.16;31.13;100119.44;5037233;28;45255;-80
2021/12/09 10:26:15;;;;;;;;;3.67;3.00;;;;;21.17;30.82;100135.41;5037251;28;45258;-78
2021/12/09 10:28:45;;;;;;;;;4.33;4.33;;;;;20.04;31.38;100051.22;5046175;28;45444;-80
2021/12/09 10:31:15;;;;;;;;;6.33;4.67;;;;;18.65;33.61;100108.25;5042588;28;45455;-80
2021/12/09 10:34:03;;;;;;;;;5.00;5.00;;;;;17.15;36.36;100093.59;5039972;28;45480;-80
2021/12/09 10:36:46;;;;;;;;;4.00;4.00;;;;;15.88;38.93;100074.88;5038218;28;45337;-81
2021/12/09 10:39:23;;;;;;;;;4.00;4.00;;;;;15.47;39.64;100100.59;5037935;28;45384;-81
2021/12/09 10:41:50;;;;;;;;;4.00;4.00;;;;;16.04;39.70;100153.28;5040581;28;45358;-79
2021/12/09 10:44:16;;;;;;;;;10.75;6.00;;;;;17.77;36.85;100213.31;5037727;28;45334;-78
2021/12/09 10:46:49;;;;;;;;;4.75;3.50;;;;;18.45;34.55;100182.72;5037094;28;45315;-79
2021/12/09 10:49:17;;;;;;;;;5.33;5.33;;;;;18.73;34.14;100198.69;5037346;28;45275;-80
2021/12/09 10:51:55;;;;;;;;;4.00;4.00;;;;;18.00;34.96;100074.03;5037431;28;45235;-80
2021/12/09 10:54:36;;;;;;;;;4.67;3.00;;;;;16.87;37.03;100069.56;5037030;28;46512;-81
2021/12/09 10:57:28;;;;;;;;;4.67;3.67;;;;;15.80;39.11;100064.44;5037238;28;45255;-80
2021/12/09 10:59:55;;;;;;;;;5.33;5.33;;;;;15.06;40.43;100053.75;5037253;28;45267;-81
2021/12/09 11:02:20;;;;;;;;;4.00;3.67;;;;;14.50;41.80;100047.84;5037443;28;45529;-78
2021/12/09 11:05:01;;;;;;;;;5.00;5.00;;;;;14.10;42.65;100053.88;5035316;28;48180;-80
2021/12/09 11:07:30;;;;;;;;;3.25;3.25;;;;;13.69;44.43;100066.03;5036972;28;45315;-80
2021/12/09 11:10:20;;;;;;;;;4.50;4.50;;;;;13.19;45.10;100065.88;5036777;28;45484;-80
2021/12/09 11:12:55;;;;;;;;;5.00;4.00;;;;;12.53;45.35;100029.72;5036996;28;45357;-78
2021/12/09 11:15:23;;;;;;;;;8.75;5.75;;;;;12.56;46.46;100058.75;5036378;28;46503;-79
2021/12/09 11:17:52;;;;;;;;;5.75;5.75;;;;;12.38;45.93;100029.94;5036420;28;45504;-82
2021/12/09 11:20:45;;;;;;;;;4.75;3.00;;;;;12.52;46.76;100049.13;5036611;28;45368;-81
2021/12/09 11:23:31;;;;;;;;;6.75;6.00;;;;;12.39;46.70;100032.56;5036773;28;45274;-80
2021/12/09 11:26:00;;;;;;;;;4.25;3.00;;;;;12.45;46.87;100037.75;5035866;28;46316;-79
2021/12/09 11:28:26;;;;;;;;;9.50;7.25;;;;;12.31;46.81;100041.44;5036983;28;45366;-80
2021/12/09 11:31:10;;;;;;;;;4.50;4.50;;;;;12.22;48.09;100032.72;5037704;28;45550;-80
2021/12/09 11:33:40;;;;;;;;;8.75;5.00;;;;;12.36;47.33;100044.91;5040150;28;45391;-80
2021/12/09 11:36:07;;;;;;;;;7.75;6.50;;;;;12.29;47.26;100027.38;5039638;28;45292;-81
2021/12/09 11:38:55;;;;;;;;;6.25;4.75;;;;;12.09;47.14;99987.97;5039472;28;45384;-81
2021/12/09 11:41:34;;;;;;;;;6.50;4.50;;;;;11.27;48.12;99892.03;5039866;28;45457;-81
2021/12/09 11:44:00;;;;;;;;;7.00;7.00;;;;;11.58;48.21;99956.78;5039758;28;45390;-80